EDMA

Augsburg Airport

Augsburg, Germany
TAF EDMA 221400Z 2215/2224 25008KT CAVOK BECMG 2216/2218 22003KT
Issued Valid From Valid To
Sep-22 @ 14:00 UTC
(an hour ago)
Sep-22 @ 15:00 UTC
(21 minutes ago)
Sep-23 @ 00:00 UTC
(in 9 hours)
to
to
TAF EDMA 221400Z 2215/2224 25008KT CAVOK BECMG 2216/2218 22003KT
Issued Sep-22 @ 14:00 UTC
(an hour ago)
Valid From Sep-22 @ 15:00 UTC
(21 minutes ago)
Valid To Sep-23 @ 00:00 UTC
(in 9 hours)
-
-